Time;durP1;ratioP1;P1;durP2;ratioP2;P2;SDS_P1;SDS_P2;PMS_P1;PMS_P2;Temp;Humidity;BMP_temperature;BMP_pressure;BME280_temperature;BME280_humidity;BME280_pressure;Samples;Min_cycle;Max_cycle;Signal;HPM_P1;HPM_P2
2023/01/14 00:01:00;;;;;;;;;;;7.30;99.90;;;;;;5032042;28;19935;-73
2023/01/14 00:03:27;;;;;;;;;;;7.30;99.90;;;;;;4975130;28;43306;-74
2023/01/14 00:05:56;;;;;;;;;;;7.40;99.90;;;;;;5031513;28;20409;-73
2023/01/14 00:08:22;;;;;;;;;;;7.40;99.90;;;;;;4994395;28;204373;-71
2023/01/14 00:10:48;;;;;;;;;;;7.40;99.90;;;;;;5042054;28;20011;-73
2023/01/14 00:13:14;;;;;;;;;;;7.40;99.90;;;;;;5000165;28;208791;-73
2023/01/14 00:15:47;;;;;;;;;;;7.50;99.90;;;;;;5043470;28;19924;-73
2023/01/14 00:18:13;;;;;;;;;;;7.50;99.90;;;;;;4984377;28;186572;-72
2023/01/14 00:20:39;;;;;;;;;;;7.50;99.90;;;;;;5036027;28;19921;-73
2023/01/14 00:23:05;;;;;;;;;;;7.50;99.90;;;;;;4986789;28;195926;-73
2023/01/14 00:25:33;;;;;;;;;;;7.40;99.90;;;;;;5038685;28;19931;-73
2023/01/14 00:27:59;;;;;;;;;;;7.40;99.90;;;;;;5003171;28;207071;-72
2023/01/14 00:30:25;;;;;;;;;;;7.40;99.90;;;;;;5042998;28;19927;-73
2023/01/14 00:32:51;;;;;;;;;;;7.40;99.90;;;;;;4992699;28;65447;-73
2023/01/14 00:35:17;;;;;;;;;;;7.30;99.90;;;;;;5044979;28;19931;-72
2023/01/14 00:37:43;;;;;;;;;;;7.30;99.90;;;;;;4989604;28;212300;-72
2023/01/14 00:40:09;;;;;;;;;;;7.30;99.90;;;;;;5045258;28;19924;-73
2023/01/14 00:42:35;;;;;;;;;;;7.30;99.90;;;;;;4983311;28;206609;-73
2023/01/14 00:45:01;;;;;;;;;;;7.30;99.90;;;;;;5027572;28;20389;-72
2023/01/14 00:47:27;;;;;;;;;;;7.30;99.90;;;;;;5036911;28;207873;-71
2023/01/14 00:49:53;;;;;;;;;;;7.20;99.90;;;;;;4988516;28;19931;-72
2023/01/14 00:52:19;;;;;;;;;;;7.30;99.90;;;;;;5040556;28;20372;-72
2023/01/14 00:54:45;;;;;;;;;;;7.20;99.90;;;;;;4979869;28;101373;-73
2023/01/14 00:57:12;;;;;;;;;;;7.20;99.90;;;;;;5051778;28;19958;-72
2023/01/14 00:59:38;;;;;;;;;;;7.20;99.90;;;;;;4950520;28;21880;-72
2023/01/14 01:02:06;;;;;;;;;;;7.20;99.90;;;;;;5053631;28;19935;-72
2023/01/14 01:04:32;;;;;;;;;;;7.20;99.90;;;;;;4965537;28;205464;-71
2023/01/14 01:06:58;;;;;;;;;;;7.20;99.90;;;;;;5059600;28;19927;-71
2023/01/14 01:09:24;;;;;;;;;;;7.10;99.90;;;;;;4960615;28;174600;-72
2023/01/14 01:11:53;;;;;;;;;;;7.10;99.90;;;;;;5059722;28;20628;-73
2023/01/14 01:14:20;;;;;;;;;;;7.00;99.90;;;;;;4998623;28;213557;-72
2023/01/14 01:16:46;;;;;;;;;;;7.00;99.90;;;;;;5059133;28;19935;-72
2023/01/14 01:19:12;;;;;;;;;;;6.90;99.90;;;;;;4987363;28;88771;-73
2023/01/14 01:21:38;;;;;;;;;;;6.90;99.90;;;;;;5057068;28;19928;-73
2023/01/14 01:24:04;;;;;;;;;;;6.90;99.90;;;;;;4969271;28;206339;-72
2023/01/14 01:26:30;;;;;;;;;;;6.90;99.90;;;;;;5051432;28;19920;-72
2023/01/14 01:28:57;;;;;;;;;;;6.80;99.90;;;;;;4975093;28;186062;-71
2023/01/14 01:31:23;;;;;;;;;;;6.80;99.90;;;;;;5054619;28;19921;-72
2023/01/14 01:33:49;;;;;;;;;;;6.80;99.90;;;;;;4966364;28;181715;-71
2023/01/14 01:36:16;;;;;;;;;;;6.80;99.90;;;;;;5037097;28;20356;-72
2023/01/14 01:38:43;;;;;;;;;;;6.80;99.90;;;;;;4968145;28;186675;-72
2023/01/14 01:41:13;;;;;;;;;;;6.80;99.90;;;;;;5037872;28;20256;-72
2023/01/14 01:43:58;;;;;;;;;;;6.70;99.90;;;;;;4966873;28;90068;-71
2023/01/14 01:46:24;;;;;;;;;;;6.80;99.90;;;;;;5019947;28;19929;-71
2023/01/14 01:48:50;;;;;;;;;;;6.80;99.90;;;;;;4972203;28;206520;-72
2023/01/14 01:51:18;;;;;;;;;;;6.80;99.90;;;;;;5034537;28;19925;-72
2023/01/14 01:53:48;;;;;;;;;;;6.90;99.90;;;;;;4987591;28;195737;-72
2023/01/14 01:56:17;;;;;;;;;;;6.90;99.90;;;;;;5032393;28;19929;-72
2023/01/14 01:58:43;;;;;;;;;;;6.90;99.90;;;;;;4974614;28;230212;-72
2023/01/14 02:01:10;;;;;;;;;;;7.00;99.90;;;;;;5046734;28;20389;-72
2023/01/14 02:03:37;;;;;;;;;;;7.00;99.90;;;;;;4985299;28;228794;-72
2023/01/14 02:06:03;;;;;;;;;;;7.00;99.90;;;;;;5051242;28;20434;-72
2023/01/14 02:08:30;;;;;;;;;;;7.00;99.90;;;;;;4989736;28;39120;-71
2023/01/14 02:11:05;;;;;;;;;;;7.00;99.90;;;;;;5035062;28;19924;-72
2023/01/14 02:13:43;;;;;;;;;;;7.00;99.90;;;;;;4984692;28;206903;-72
2023/01/14 02:16:13;;;;;;;;;;;7.00;99.90;;;;;;5049216;28;19921;-72
2023/01/14 02:18:55;;;;;;;;;;;7.00;99.90;;;;;;4974697;28;184589;-72
2023/01/14 02:21:23;;;;;;;;;;;7.10;99.90;;;;;;5061401;28;19943;-72
2023/01/14 02:24:04;;;;;;;;;;;7.10;99.90;;;;;;4983211;28;224353;-72
2023/01/14 02:26:33;;;;;;;;;;;7.20;99.90;;;;;;5038222;28;19920;-71
2023/01/14 02:29:18;;;;;;;;;;;7.20;99.90;;;;;;4977795;28;190727;-72
2023/01/14 02:31:47;;;;;;;;;;;7.20;99.90;;;;;;5042439;28;19933;-72
2023/01/14 02:34:28;;;;;;;;;;;7.20;99.90;;;;;;4954143;28;199768;-73
2023/01/14 02:37:06;;;;;;;;;;;7.20;99.90;;;;;;5038791;28;20408;-72
2023/01/14 02:39:55;;;;;;;;;;;7.20;99.90;;;;;;4968407;28;212464;-73
2023/01/14 02:45:11;;;;;;;;;;;7.10;99.90;;;;;;4960893;28;111520;-73
2023/01/14 02:47:38;;;;;;;;;;;7.10;99.90;;;;;;5000042;28;206645;-71
2023/01/14 02:50:06;;;;;;;;;;;7.00;99.90;;;;;;5031512;28;20416;-72
2023/01/14 02:52:32;;;;;;;;;;;7.00;99.90;;;;;;5017124;28;206916;-72
2023/01/14 02:54:58;;;;;;;;;;;6.90;99.90;;;;;;5023738;28;19921;-72
2023/01/14 02:57:30;;;;;;;;;;;6.90;99.90;;;;;;5025520;28;205473;-70
2023/01/14 03:00:09;;;;;;;;;;;6.90;99.90;;;;;;4963268;28;26205;-71
2023/01/14 03:02:49;;;;;;;;;;;6.90;99.90;;;;;;4976108;28;238896;-71
2023/01/14 03:05:21;;;;;;;;;;;6.80;99.90;;;;;;5036017;28;19932;-72
2023/01/14 03:07:53;;;;;;;;;;;6.80;99.90;;;;;;4978583;28;246533;-72
2023/01/14 03:10:25;;;;;;;;;;;6.70;99.90;;;;;;5044746;28;20644;-73
2023/01/14 03:12:58;;;;;;;;;;;6.70;99.90;;;;;;4991272;28;168156;-73
2023/01/14 03:15:26;;;;;;;;;;;6.70;99.90;;;;;;5024213;28;19920;-70
2023/01/14 03:18:04;;;;;;;;;;;6.70;99.90;;;;;;4988790;28;166764;-71
2023/01/14 03:20:31;;;;;;;;;;;6.60;99.90;;;;;;5031809;28;20295;-71
2023/01/14 03:23:00;;;;;;;;;;;6.60;99.90;;;;;;4989056;28;172902;-72
2023/01/14 03:25:27;;;;;;;;;;;6.50;99.90;;;;;;5027179;28;20492;-71
2023/01/14 03:27:54;;;;;;;;;;;6.40;99.90;;;;;;4994492;28;217361;-71
2023/01/14 03:30:24;;;;;;;;;;;6.40;99.90;;;;;;5015813;28;19936;-72
2023/01/14 03:32:55;;;;;;;;;;;6.40;99.90;;;;;;5010606;28;206510;-71
2023/01/14 03:35:25;;;;;;;;;;;6.30;99.90;;;;;;5044826;28;19928;-71
2023/01/14 03:37:53;;;;;;;;;;;6.30;99.90;;;;;;4992611;28;162788;-70
2023/01/14 03:40:21;;;;;;;;;;;6.20;99.90;;;;;;5018326;28;19951;-71
2023/01/14 03:42:50;;;;;;;;;;;6.20;99.90;;;;;;5006483;28;207434;-71
2023/01/14 03:45:18;;;;;;;;;;;6.20;99.90;;;;;;5036872;28;19925;-71
2023/01/14 03:47:45;;;;;;;;;;;6.20;99.90;;;;;;5000799;28;204193;-72
2023/01/14 03:50:13;;;;;;;;;;;6.20;99.90;;;;;;5018052;28;19921;-72
2023/01/14 03:52:45;;;;;;;;;;;6.20;99.90;;;;;;4992466;28;212076;-71
2023/01/14 03:55:17;;;;;;;;;;;6.20;99.90;;;;;;5015615;28;20409;-72
2023/01/14 03:57:56;;;;;;;;;;;6.20;99.90;;;;;;4979870;28;230998;-72
2023/01/14 04:00:22;;;;;;;;;;;6.20;99.90;;;;;;5024252;28;20309;-71
2023/01/14 04:02:48;;;;;;;;;;;6.30;99.90;;;;;;4987195;28;207398;-70
2023/01/14 04:05:14;;;;;;;;;;;6.20;99.90;;;;;;5009179;28;19929;-72
2023/01/14 04:07:40;;;;;;;;;;;6.20;99.90;;;;;;5003092;28;212774;-72
2023/01/14 04:10:07;;;;;;;;;;;6.20;99.90;;;;;;5042304;28;19960;-71
2023/01/14 04:12:33;;;;;;;;;;;6.10;99.90;;;;;;5004799;28;208879;-72
2023/01/14 04:17:43;;;;;;;;;;;6.10;99.90;;;;;;4994798;28;206809;-70
2023/01/14 04:20:09;;;;;;;;;;;6.00;99.90;;;;;;5010997;28;20342;-71
2023/01/14 04:22:35;;;;;;;;;;;6.00;99.90;;;;;;4984347;28;210985;-72
2023/01/14 04:25:01;;;;;;;;;;;5.90;99.90;;;;;;5025462;28;19929;-71
2023/01/14 04:27:27;;;;;;;;;;;5.90;99.90;;;;;;5034997;28;216124;-72
2023/01/14 04:29:53;;;;;;;;;;;5.90;99.90;;;;;;4977203;28;101517;-72
2023/01/14 04:32:19;;;;;;;;;;;5.90;99.90;;;;;;5057763;28;20388;-72
2023/01/14 04:34:45;;;;;;;;;;;5.90;99.90;;;;;;4978324;28;192861;-71
2023/01/14 04:37:10;;;;;;;;;;;5.90;99.90;;;;;;5041792;28;19930;-72
2023/01/14 04:39:36;;;;;;;;;;;5.90;99.90;;;;;;4981374;28;206953;-72
2023/01/14 04:44:47;;;;;;;;;;;5.90;99.90;;;;;;4963704;28;214926;-71
2023/01/14 04:47:14;;;;;;;;;;;5.80;99.90;;;;;;5054951;28;19936;-71
2023/01/14 04:49:40;;;;;;;;;;;5.80;99.90;;;;;;4991719;28;242565;-72
2023/01/14 04:52:06;;;;;;;;;;;5.80;99.90;;;;;;5052383;28;19925;-72
2023/01/14 04:54:32;;;;;;;;;;;5.70;99.90;;;;;;4965501;28;211714;-72
2023/01/14 04:56:58;;;;;;;;;;;5.70;99.90;;;;;;5056079;28;19951;-71
2023/01/14 04:59:24;;;;;;;;;;;5.80;99.90;;;;;;4981529;28;208191;-71
2023/01/14 05:01:49;;;;;;;;;;;5.80;99.90;;;;;;5053417;28;20394;-70
2023/01/14 05:04:16;;;;;;;;;;;5.80;99.90;;;;;;4956675;28;56454;-71
2023/01/14 05:06:42;;;;;;;;;;;5.70;99.90;;;;;;5035043;28;19928;-71
2023/01/14 05:09:07;;;;;;;;;;;5.80;99.90;;;;;;4968627;28;208747;-71
2023/01/14 05:11:33;;;;;;;;;;;5.80;99.90;;;;;;5049578;28;19939;-72
2023/01/14 05:13:59;;;;;;;;;;;5.80;99.90;;;;;;4969354;28;224260;-71
2023/01/14 05:16:26;;;;;;;;;;;5.80;99.90;;;;;;5048288;28;19929;-72
2023/01/14 05:18:53;;;;;;;;;;;5.80;99.90;;;;;;5000075;28;206546;-71
2023/01/14 05:21:19;;;;;;;;;;;5.80;99.90;;;;;;5049869;28;19928;-71
2023/01/14 05:23:45;;;;;;;;;;;5.80;99.90;;;;;;4986502;28;206843;-71
2023/01/14 05:26:11;;;;;;;;;;;5.80;99.90;;;;;;5045171;28;19939;-71
2023/01/14 05:28:37;;;;;;;;;;;5.80;99.90;;;;;;4985078;28;209120;-71
2023/01/14 05:31:03;;;;;;;;;;;5.80;99.90;;;;;;5029247;28;19973;-70
2023/01/14 05:33:30;;;;;;;;;;;5.80;99.90;;;;;;4978532;28;205303;-72
2023/01/14 05:35:56;;;;;;;;;;;5.80;99.90;;;;;;5023233;28;20010;-72
2023/01/14 05:38:22;;;;;;;;;;;5.80;99.90;;;;;;4989104;28;207808;-72
2023/01/14 05:40:48;;;;;;;;;;;5.70;99.90;;;;;;5020328;28;19925;-72
2023/01/14 05:46:04;;;;;;;;;;;5.70;99.90;;;;;;5037888;28;19932;-72
2023/01/14 05:48:30;;;;;;;;;;;5.70;99.90;;;;;;4980490;28;184329;-71
2023/01/14 05:50:58;;;;;;;;;;;5.70;99.90;;;;;;5032123;28;19931;-71
2023/01/14 05:53:24;;;;;;;;;;;5.70;99.90;;;;;;4995866;28;209627;-70
2023/01/14 05:55:50;;;;;;;;;;;5.80;99.90;;;;;;5043493;28;19921;-70
2023/01/14 05:58:16;;;;;;;;;;;5.70;99.90;;;;;;4994378;28;206326;-71
2023/01/14 06:06:20;;;;;;;;;;;5.70;99.90;;;;;;5054522;28;20393;-72
2023/01/14 06:08:46;;;;;;;;;;;5.70;99.90;;;;;;5005289;28;209118;-70
2023/01/14 06:11:12;;;;;;;;;;;5.70;99.90;;;;;;5025234;28;19940;-71
2023/01/14 06:13:38;;;;;;;;;;;5.70;99.90;;;;;;4996153;28;206309;-71
2023/01/14 06:16:07;;;;;;;;;;;5.70;99.90;;;;;;5035547;28;19989;-71
2023/01/14 06:18:41;;;;;;;;;;;5.70;99.90;;;;;;4959404;28;211827;-71
2023/01/14 06:21:09;;;;;;;;;;;5.70;99.90;;;;;;5034031;28;20285;-71
2023/01/14 06:23:34;;;;;;;;;;;5.70;99.90;;;;;;5001327;28;203627;-71
2023/01/14 06:26:00;;;;;;;;;;;5.70;99.90;;;;;;5057937;28;19934;-70
2023/01/14 06:28:26;;;;;;;;;;;5.60;99.90;;;;;;4967173;28;209720;-71
2023/01/14 06:30:52;;;;;;;;;;;5.60;99.90;;;;;;5022834;28;19932;-71
2023/01/14 06:33:18;;;;;;;;;;;5.70;99.90;;;;;;4996859;28;253202;-70
2023/01/14 06:35:44;;;;;;;;;;;5.60;99.90;;;;;;5040226;28;19921;-71
2023/01/14 06:38:11;;;;;;;;;;;5.60;99.90;;;;;;5001802;28;209489;-71
2023/01/14 06:40:38;;;;;;;;;;;5.60;99.90;;;;;;5044105;28;19936;-71
2023/01/14 06:43:04;;;;;;;;;;;5.60;99.90;;;;;;4999162;28;212675;-71
2023/01/14 06:45:30;;;;;;;;;;;5.60;99.90;;;;;;5018094;28;20318;-70
2023/01/14 06:47:56;;;;;;;;;;;5.60;99.90;;;;;;4983261;28;210332;-70
2023/01/14 06:50:22;;;;;;;;;;;5.60;99.90;;;;;;5020941;28;19920;-71
2023/01/14 06:52:48;;;;;;;;;;;5.60;99.90;;;;;;5003121;28;209857;-71
2023/01/14 06:55:15;;;;;;;;;;;5.60;99.90;;;;;;5025702;28;19932;-71
2023/01/14 06:57:42;;;;;;;;;;;5.60;99.90;;;;;;4995939;28;230118;-71
2023/01/14 07:00:10;;;;;;;;;;;5.60;99.90;;;;;;5020019;28;19920;-72
2023/01/14 07:02:36;;;;;;;;;;;5.60;99.90;;;;;;4976432;28;207339;-71
2023/01/14 07:05:02;;;;;;;;;;;5.70;99.90;;;;;;5027966;28;19929;-72
2023/01/14 07:07:28;;;;;;;;;;;5.70;99.90;;;;;;5022821;28;212387;-72
2023/01/14 07:09:53;;;;;;;;;;;5.70;99.90;;;;;;5015536;28;42140;-69
2023/01/14 07:12:19;;;;;;;;;;;5.70;99.90;;;;;;5064666;28;20159;-70
2023/01/14 07:14:45;;;;;;;;;;;5.70;99.90;;;;;;4992649;28;214612;-71
2023/01/14 07:17:11;;;;;;;;;;;5.80;99.90;;;;;;5069201;28;20277;-71
2023/01/14 07:19:37;;;;;;;;;;;5.80;99.90;;;;;;4972712;28;242903;-71
2023/01/14 07:22:03;;;;;;;;;;;5.80;99.90;;;;;;5059579;28;19931;-72
2023/01/14 07:24:29;;;;;;;;;;;5.80;99.90;;;;;;4978411;28;206763;-73
2023/01/14 07:26:55;;;;;;;;;;;5.90;99.90;;;;;;5047866;28;20389;-71
2023/01/14 07:29:21;;;;;;;;;;;5.90;99.90;;;;;;4998142;28;208778;-70
2023/01/14 07:31:47;;;;;;;;;;;5.90;99.90;;;;;;5042500;28;19920;-71
2023/01/14 07:34:13;;;;;;;;;;;5.90;99.90;;;;;;4968991;28;206378;-72
2023/01/14 07:36:39;;;;;;;;;;;6.00;99.90;;;;;;5039919;28;19927;-72
2023/01/14 07:39:05;;;;;;;;;;;6.00;99.90;;;;;;4992520;28;74859;-70
2023/01/14 07:41:31;;;;;;;;;;;6.00;99.90;;;;;;5051408;28;19927;-70
2023/01/14 07:43:57;;;;;;;;;;;6.00;99.90;;;;;;4982439;28;170631;-71
2023/01/14 07:46:23;;;;;;;;;;;6.00;99.90;;;;;;5040678;28;19924;-73
2023/01/14 07:48:48;;;;;;;;;;;6.10;99.90;;;;;;4974007;28;206307;-70
2023/01/14 07:51:20;;;;;;;;;;;6.10;99.90;;;;;;5044485;28;19933;-71
2023/01/14 07:53:47;;;;;;;;;;;6.10;99.90;;;;;;4988356;28;224621;-72
2023/01/14 07:56:13;;;;;;;;;;;6.10;99.90;;;;;;5027243;28;19921;-71
2023/01/14 07:58:39;;;;;;;;;;;6.10;99.90;;;;;;4995548;28;207646;-71
2023/01/14 08:01:06;;;;;;;;;;;6.10;99.90;;;;;;5012531;28;19974;-71
2023/01/14 08:03:31;;;;;;;;;;;6.10;99.90;;;;;;4975963;28;218955;-71
2023/01/14 08:06:01;;;;;;;;;;;6.10;99.90;;;;;;5044370;28;19975;-71
2023/01/14 08:08:27;;;;;;;;;;;6.10;99.90;;;;;;4973266;28;208438;-72
2023/01/14 08:10:54;;;;;;;;;;;6.20;99.90;;;;;;5034080;28;19944;-71
2023/01/14 08:13:20;;;;;;;;;;;6.20;99.90;;;;;;4990985;28;207133;-71
2023/01/14 08:15:52;;;;;;;;;;;6.20;99.90;;;;;;5018696;28;20406;-72
2023/01/14 08:18:18;;;;;;;;;;;6.20;99.90;;;;;;4998094;28;207708;-71
2023/01/14 08:20:44;;;;;;;;;;;6.20;99.90;;;;;;5034015;28;19972;-71
2023/01/14 08:23:10;;;;;;;;;;;6.20;99.90;;;;;;4988499;28;204983;-71
2023/01/14 08:25:36;;;;;;;;;;;6.20;99.90;;;;;;5029397;28;20522;-72
2023/01/14 08:28:02;;;;;;;;;;;6.20;99.90;;;;;;4984813;28;206470;-71
2023/01/14 08:30:28;;;;;;;;;;;6.20;99.90;;;;;;5020224;28;20354;-72
2023/01/14 08:32:54;;;;;;;;;;;6.20;99.90;;;;;;4973626;28;205310;-72
2023/01/14 08:35:20;;;;;;;;;;;6.20;99.90;;;;;;5021506;28;19920;-72
2023/01/14 08:37:47;;;;;;;;;;;6.10;99.90;;;;;;4976354;28;75543;-71
2023/01/14 08:40:13;;;;;;;;;;;6.10;99.90;;;;;;5018698;28;19924;-72
2023/01/14 08:42:39;;;;;;;;;;;6.10;99.90;;;;;;4985739;28;211584;-72
2023/01/14 08:45:06;;;;;;;;;;;6.10;99.90;;;;;;5022399;28;20345;-72
2023/01/14 08:47:31;;;;;;;;;;;6.10;99.90;;;;;;5008001;28;210058;-72
2023/01/14 08:49:57;;;;;;;;;;;6.10;99.90;;;;;;5009289;28;19928;-73
2023/01/14 08:52:23;;;;;;;;;;;6.10;99.90;;;;;;5034463;28;214729;-73
2023/01/14 08:54:49;;;;;;;;;;;6.10;99.90;;;;;;4992913;28;49987;-73
2023/01/14 08:57:15;;;;;;;;;;;6.10;99.90;;;;;;5036883;28;19925;-73
2023/01/14 08:59:41;;;;;;;;;;;6.10;99.90;;;;;;4959847;28;268244;-74
2023/01/14 09:02:11;;;;;;;;;;;6.00;99.90;;;;;;5054220;28;19927;-74
2023/01/14 09:04:37;;;;;;;;;;;6.10;99.90;;;;;;4963320;28;171029;-75
2023/01/14 09:18:02;;;;;;;;;;;6.00;99.90;;;;;;4992248;28;218984;-74
2023/01/14 09:20:30;;;;;;;;;;;6.10;99.90;;;;;;5012865;28;19924;-76
2023/01/14 09:22:56;;;;;;;;;;;6.10;99.90;;;;;;4980145;28;173136;-73
2023/01/14 09:25:23;;;;;;;;;;;6.00;99.90;;;;;;5052565;28;19944;-74
2023/01/14 09:27:49;;;;;;;;;;;6.10;99.90;;;;;;4987107;28;108383;-74
2023/01/14 09:30:15;;;;;;;;;;;6.10;99.90;;;;;;5048458;28;20313;-74
2023/01/14 09:32:41;;;;;;;;;;;6.10;99.90;;;;;;4981355;28;210702;-73
2023/01/14 09:35:07;;;;;;;;;;;6.10;99.90;;;;;;5026261;28;20455;-73
2023/01/14 09:37:33;;;;;;;;;;;6.10;99.90;;;;;;5012578;28;219541;-73
2023/01/14 09:40:00;;;;;;;;;;;6.10;99.90;;;;;;5045551;28;19929;-73
2023/01/14 09:42:36;;;;;;;;;;;6.10;99.90;;;;;;5042966;28;211969;-73
2023/01/14 09:45:11;;;;;;;;;;;6.10;99.90;;;;;;4980964;28;60487;-74
2023/01/14 09:47:37;;;;;;;;;;;6.20;99.90;;;;;;4997282;28;250989;-73
2023/01/14 09:50:06;;;;;;;;;;;6.10;99.90;;;;;;5030076;28;20314;-73
2023/01/14 09:52:53;;;;;;;;;;;6.10;99.90;;;;;;5016165;28;230201;-74
2023/01/14 09:55:32;;;;;;;;;;;6.20;99.90;;;;;;4990687;28;19936;-75
2023/01/14 09:58:12;;;;;;;;;;;6.20;99.90;;;;;;5009367;28;209882;-73
2023/01/14 10:00:41;;;;;;;;;;;6.20;99.90;;;;;;5061921;28;19921;-73
2023/01/14 10:03:20;;;;;;;;;;;6.20;99.90;;;;;;4973581;28;210390;-74
2023/01/14 10:05:51;;;;;;;;;;;6.20;99.90;;;;;;5034611;28;19929;-73
2023/01/14 10:08:18;;;;;;;;;;;6.30;99.90;;;;;;4985313;28;225973;-74
2023/01/14 10:10:47;;;;;;;;;;;6.20;99.90;;;;;;5027541;28;19928;-74
2023/01/14 10:13:12;;;;;;;;;;;6.30;99.90;;;;;;4982451;28;257315;-75
2023/01/14 10:15:38;;;;;;;;;;;6.30;99.90;;;;;;5038039;28;19927;-74
2023/01/14 10:18:25;;;;;;;;;;;6.30;99.90;;;;;;5004220;28;224785;-73
2023/01/14 10:20:53;;;;;;;;;;;6.30;99.90;;;;;;5024430;28;19951;-73
2023/01/14 10:23:24;;;;;;;;;;;6.40;99.90;;;;;;4980817;28;203447;-73
2023/01/14 10:25:52;;;;;;;;;;;6.40;99.90;;;;;;5032128;28;19929;-73
2023/01/14 10:28:21;;;;;;;;;;;6.40;99.90;;;;;;5013908;28;217296;-75
2023/01/14 10:30:47;;;;;;;;;;;6.50;99.90;;;;;;5058820;28;19931;-74
2023/01/14 10:33:14;;;;;;;;;;;6.50;99.90;;;;;;5001402;28;207153;-74
2023/01/14 10:35:45;;;;;;;;;;;6.50;99.90;;;;;;5055148;28;19928;-74
2023/01/14 10:38:20;;;;;;;;;;;6.50;99.90;;;;;;4995869;28;203763;-73
2023/01/14 10:40:46;;;;;;;;;;;6.60;99.90;;;;;;5044242;28;20313;-74
2023/01/14 10:43:18;;;;;;;;;;;6.60;99.90;;;;;;4989602;28;225769;-73
2023/01/14 10:45:45;;;;;;;;;;;6.60;99.90;;;;;;5037771;28;20343;-74
2023/01/14 10:48:16;;;;;;;;;;;6.60;99.90;;;;;;5013074;28;211340;-74
2023/01/14 10:50:43;;;;;;;;;;;6.70;99.90;;;;;;5056025;28;19932;-73
2023/01/14 10:53:20;;;;;;;;;;;6.70;99.90;;;;;;5005380;28;212166;-74
2023/01/14 10:55:48;;;;;;;;;;;6.70;99.90;;;;;;5040704;28;19921;-73
2023/01/14 10:58:15;;;;;;;;;;;6.80;99.90;;;;;;4986607;28;204004;-74
2023/01/14 11:00:47;;;;;;;;;;;6.80;99.90;;;;;;5047492;28;19921;-74
2023/01/14 11:03:15;;;;;;;;;;;6.80;99.90;;;;;;4983864;28;206918;-72
2023/01/14 11:05:42;;;;;;;;;;;6.90;99.90;;;;;;5011711;28;20333;-73
2023/01/14 11:08:13;;;;;;;;;;;6.90;99.90;;;;;;4999442;28;252711;-73
2023/01/14 11:10:40;;;;;;;;;;;6.90;99.90;;;;;;5050025;28;20603;-73
2023/01/14 11:13:31;;;;;;;;;;;6.90;99.90;;;;;;4982549;28;206604;-73
2023/01/14 11:15:58;;;;;;;;;;;6.90;99.90;;;;;;5023870;28;19932;-74
2023/01/14 11:18:28;;;;;;;;;;;7.00;99.90;;;;;;4997296;28;43883;-73
2023/01/14 11:21:10;;;;;;;;;;;6.90;99.90;;;;;;5050663;28;19936;-72
2023/01/14 11:23:37;;;;;;;;;;;7.00;99.90;;;;;;4987745;28;205807;-73
2023/01/14 11:26:07;;;;;;;;;;;7.00;99.90;;;;;;5052860;28;19932;-74
2023/01/14 11:28:35;;;;;;;;;;;7.00;99.90;;;;;;4987815;28;190588;-74
2023/01/14 11:31:01;;;;;;;;;;;7.00;99.90;;;;;;5048731;28;19928;-73
2023/01/14 11:33:27;;;;;;;;;;;7.00;99.90;;;;;;4975282;28;178498;-74
2023/01/14 11:35:54;;;;;;;;;;;7.00;99.90;;;;;;5046017;28;19921;-71
2023/01/14 11:38:23;;;;;;;;;;;7.00;99.90;;;;;;4986313;28;223969;-72
2023/01/14 11:43:50;;;;;;;;;;;7.00;99.90;;;;;;4985550;28;207059;-72
2023/01/14 11:46:16;;;;;;;;;;;7.00;99.90;;;;;;5024345;28;19925;-72
2023/01/14 11:48:42;;;;;;;;;;;7.10;99.90;;;;;;4973685;28;204018;-72
2023/01/14 11:51:18;;;;;;;;;;;7.10;99.90;;;;;;5041484;28;19925;-73
2023/01/14 11:53:51;;;;;;;;;;;7.10;99.90;;;;;;4971730;28;195200;-73
2023/01/14 11:56:28;;;;;;;;;;;7.10;99.90;;;;;;5046747;28;19943;-73
2023/01/14 11:58:54;;;;;;;;;;;7.10;99.90;;;;;;4964035;28;92483;-72
2023/01/14 12:01:26;;;;;;;;;;;7.10;99.90;;;;;;5051319;28;19929;-74
2023/01/14 12:04:15;;;;;;;;;;;7.20;99.90;;;;;;4983149;28;206833;-72
2023/01/14 12:07:00;;;;;;;;;;;7.10;99.90;;;;;;5037005;28;20332;-73
2023/01/14 12:09:55;;;;;;;;;;;7.20;99.90;;;;;;4967763;28;208933;-73
2023/01/14 12:12:21;;;;;;;;;;;7.20;99.90;;;;;;5039264;28;19931;-73
2023/01/14 12:17:53;;;;;;;;;;;7.20;99.90;;;;;;4984074;28;212973;-72
2023/01/14 12:20:21;;;;;;;;;;;7.20;99.90;;;;;;5031524;28;19928;-72
2023/01/14 12:22:55;;;;;;;;;;;7.30;99.90;;;;;;5005595;28;217400;-71
2023/01/14 12:25:36;;;;;;;;;;;7.30;99.90;;;;;;5040666;28;20390;-71
2023/01/14 12:28:09;;;;;;;;;;;7.30;99.90;;;;;;4985695;28;206271;-71
2023/01/14 12:30:38;;;;;;;;;;;7.30;99.90;;;;;;5034494;28;19924;-72
2023/01/14 12:33:11;;;;;;;;;;;7.40;99.90;;;;;;4992224;28;209828;-71
2023/01/14 12:35:39;;;;;;;;;;;7.40;99.90;;;;;;5028411;28;19925;-71
2023/01/14 12:46:36;;;;;;;;;;;7.60;99.90;;;;;;5051741;28;19935;-71
2023/01/14 12:49:03;;;;;;;;;;;7.70;99.90;;;;;;4974470;28;159737;-72
2023/01/14 12:51:31;;;;;;;;;;;7.70;99.90;;;;;;5035208;28;19931;-71
2023/01/14 12:53:59;;;;;;;;;;;7.80;99.90;;;;;;4997464;28;220355;-72
2023/01/14 12:56:30;;;;;;;;;;;7.80;99.90;;;;;;5016170;28;19928;-71
2023/01/14 12:59:00;;;;;;;;;;;7.90;99.90;;;;;;4996257;28;206498;-72
2023/01/14 13:01:29;;;;;;;;;;;7.90;99.90;;;;;;5047726;28;20305;-71
2023/01/14 13:04:00;;;;;;;;;;;7.90;99.90;;;;;;4980209;28;206964;-73
2023/01/14 13:06:29;;;;;;;;;;;8.00;99.90;;;;;;5043447;28;19928;-73
2023/01/14 13:08:56;;;;;;;;;;;8.00;99.90;;;;;;4982113;28;187805;-73
2023/01/14 13:11:39;;;;;;;;;;;8.10;99.90;;;;;;5050089;28;20293;-72
2023/01/14 13:14:16;;;;;;;;;;;8.20;99.90;;;;;;4977221;28;272621;-72
2023/01/14 13:16:43;;;;;;;;;;;8.20;99.90;;;;;;5031210;28;19925;-72
2023/01/14 13:19:24;;;;;;;;;;;8.20;99.90;;;;;;4973648;28;207458;-72
2023/01/14 13:21:59;;;;;;;;;;;8.20;99.90;;;;;;5052746;28;19920;-70
2023/01/14 13:24:25;;;;;;;;;;;8.30;99.90;;;;;;4979418;28;206466;-69
2023/01/14 13:26:53;;;;;;;;;;;8.30;99.90;;;;;;5055263;28;20020;-71
2023/01/14 13:29:21;;;;;;;;;;;8.40;99.90;;;;;;4983876;28;206814;-71
2023/01/14 13:31:47;;;;;;;;;;;8.40;99.90;;;;;;5052948;28;20491;-71
2023/01/14 13:34:22;;;;;;;;;;;8.40;99.90;;;;;;4985461;28;207089;-71
2023/01/14 13:37:00;;;;;;;;;;;8.50;99.90;;;;;;5056439;28;20317;-71
2023/01/14 13:39:27;;;;;;;;;;;8.50;99.90;;;;;;4969832;28;155498;-71
2023/01/14 13:41:57;;;;;;;;;;;8.60;99.90;;;;;;5038471;28;19920;-71
2023/01/14 13:44:25;;;;;;;;;;;8.60;99.90;;;;;;4983444;28;207159;-72
2023/01/14 13:47:11;;;;;;;;;;;8.60;99.90;;;;;;5050239;28;19936;-69
2023/01/14 13:49:40;;;;;;;;;;;8.60;99.90;;;;;;4992468;28;210802;-69
2023/01/14 13:52:14;;;;;;;;;;;8.70;99.90;;;;;;5043812;28;19921;-70
2023/01/14 13:54:41;;;;;;;;;;;8.70;99.90;;;;;;4978962;28;204048;-71
2023/01/14 13:57:10;;;;;;;;;;;8.70;99.90;;;;;;5041081;28;19924;-70
2023/01/14 13:59:37;;;;;;;;;;;8.80;99.90;;;;;;4954788;28;222341;-70
2023/01/14 14:02:23;;;;;;;;;;;8.80;99.90;;;;;;5058281;28;19931;-70
2023/01/14 14:04:55;;;;;;;;;;;8.90;99.90;;;;;;4965442;28;77115;-70
2023/01/14 14:07:56;;;;;;;;;;;8.90;99.90;;;;;;5044440;28;19929;-69
2023/01/14 14:10:28;;;;;;;;;;;8.90;99.90;;;;;;4987165;28;209289;-69
2023/01/14 14:15:50;;;;;;;;;;;9.00;99.90;;;;;;5052570;28;19927;-69
2023/01/14 14:18:20;;;;;;;;;;;9.10;99.90;;;;;;4996272;28;210072;-70
2023/01/14 14:20:46;;;;;;;;;;;9.10;99.90;;;;;;5044039;28;19932;-72
2023/01/14 14:23:18;;;;;;;;;;;9.20;99.90;;;;;;4997925;28;209576;-71
2023/01/14 14:25:44;;;;;;;;;;;9.20;99.90;;;;;;5053522;28;19925;-71
2023/01/14 14:28:15;;;;;;;;;;;9.20;99.90;;;;;;4988971;28;208733;-71
2023/01/14 14:30:54;;;;;;;;;;;9.20;99.90;;;;;;5049803;28;20313;-70
2023/01/14 14:33:39;;;;;;;;;;;9.20;99.90;;;;;;4990419;28;212067;-71
2023/01/14 14:36:15;;;;;;;;;;;9.20;99.90;;;;;;5047676;28;19925;-71
2023/01/14 14:38:49;;;;;;;;;;;9.30;99.90;;;;;;5003851;28;208483;-70
2023/01/14 14:41:18;;;;;;;;;;;9.30;99.90;;;;;;5054069;28;19931;-71
2023/01/14 14:43:54;;;;;;;;;;;9.40;99.90;;;;;;4988638;28;215400;-70
2023/01/14 14:46:22;;;;;;;;;;;9.40;99.90;;;;;;5030641;28;19928;-70
2023/01/14 14:48:48;;;;;;;;;;;9.40;99.90;;;;;;4966503;28;228460;-71
2023/01/14 14:51:17;;;;;;;;;;;9.40;99.90;;;;;;5030678;28;21788;-70
2023/01/14 14:53:44;;;;;;;;;;;9.40;99.90;;;;;;4997893;28;207530;-71
2023/01/14 14:56:15;;;;;;;;;;;9.50;99.90;;;;;;5028475;28;19928;-70
2023/01/14 14:58:59;;;;;;;;;;;9.40;99.90;;;;;;5006442;28;206268;-71
2023/01/14 15:01:34;;;;;;;;;;;9.50;99.90;;;;;;5049227;28;19924;-70
2023/01/14 15:04:01;;;;;;;;;;;9.50;99.90;;;;;;4967817;28;208566;-71
2023/01/14 15:06:30;;;;;;;;;;;9.50;99.90;;;;;;5050037;28;19925;-70
2023/01/14 15:08:59;;;;;;;;;;;9.50;99.90;;;;;;4984772;28;206352;-70
2023/01/14 15:11:33;;;;;;;;;;;9.50;99.90;;;;;;5023481;28;19928;-71
2023/01/14 15:13:59;;;;;;;;;;;9.60;99.90;;;;;;4980601;28;190581;-70
2023/01/14 15:16:29;;;;;;;;;;;9.60;99.90;;;;;;5045836;28;19931;-71
2023/01/14 15:18:56;;;;;;;;;;;9.60;99.90;;;;;;4995652;28;209721;-70